Time;durP1;ratioP1;P1;durP2;ratioP2;P2;SDS_P1;SDS_P2;PMS_P1;PMS_P2;Temp;Humidity;BMP_temperature;BMP_pressure;BME280_temperature;BME280_humidity;BME280_pressure;Samples;Min_cycle;Max_cycle;Signal;HPM_P1;HPM_P2
2022/10/25 00:01:19;;;;;;;5.30;3.08;;;;;;;10.44;76.65;96878.28;5093368;28;20062;-60
2022/10/25 00:03:47;;;;;;;6.40;3.80;;;;;;;10.50;76.01;96875.50;5093210;28;20055;-61
2022/10/25 00:06:14;;;;;;;8.20;4.13;;;;;;;10.53;75.80;96880.63;5093168;28;20044;-60
2022/10/25 00:08:42;;;;;;;7.82;3.88;;;;;;;10.58;75.96;96881.34;5093003;28;20135;-60
2022/10/25 00:11:18;;;;;;;9.32;3.63;;;;;;;10.61;75.39;96885.63;5093212;28;20052;-60
2022/10/25 00:13:45;;;;;;;8.00;3.50;;;;;;;10.64;75.93;96876.81;5093084;28;20040;-61
2022/10/25 00:16:14;;;;;;;7.45;3.83;;;;;;;10.64;75.31;96879.44;5093276;28;20091;-60
2022/10/25 00:18:42;;;;;;;6.28;3.20;;;;;;;10.65;75.36;96876.75;5093161;28;20083;-60
2022/10/25 00:21:09;;;;;;;7.40;3.47;;;;;;;10.67;75.21;96869.72;5092941;28;20052;-60
2022/10/25 00:23:36;;;;;;;5.82;3.38;;;;;;;10.61;75.10;96870.78;5093080;28;20482;-60
2022/10/25 00:26:05;;;;;;;4.63;3.40;;;;;;;10.61;75.47;96869.94;5092966;28;20134;-61
2022/10/25 00:28:34;;;;;;;5.70;3.72;;;;;;;10.58;75.39;96868.28;5093237;28;20044;-60
2022/10/25 00:31:02;;;;;;;12.30;4.03;;;;;;;10.51;75.90;96861.53;5092874;28;20052;-61
2022/10/25 00:33:31;;;;;;;9.93;3.63;;;;;;;10.51;75.91;96861.53;5092990;28;20071;-61
2022/10/25 00:36:05;;;;;;;12.23;3.72;;;;;;;10.50;75.51;96865.03;5092933;28;20044;-60
2022/10/25 00:38:32;;;;;;;6.50;3.65;;;;;;;10.41;76.04;96862.72;5092778;28;20667;-60
2022/10/25 00:40:59;;;;;;;10.13;3.50;;;;;;;10.39;76.48;96859.28;5092900;28;20056;-61
2022/10/25 00:43:40;;;;;;;6.25;4.05;;;;;;;10.41;76.61;96857.47;5092795;28;20125;-60
2022/10/25 00:46:12;;;;;;;5.25;3.45;;;;;;;10.44;75.43;96855.59;5092752;28;20048;-60
2022/10/25 00:48:42;;;;;;;10.40;3.97;;;;;;;10.41;75.59;96849.63;5092938;28;20482;-60
2022/10/25 00:51:10;;;;;;;8.65;3.58;;;;;;;10.39;75.65;96856.66;5092730;28;20098;-61
2022/10/25 00:53:38;;;;;;;6.43;3.15;;;;;;;10.28;76.15;96851.78;5092707;28;20072;-60
2022/10/25 00:56:12;;;;;;;6.00;3.90;;;;;;;10.29;76.55;96850.88;5092741;28;20083;-60
2022/10/25 00:58:45;;;;;;;6.90;3.78;;;;;;;10.33;76.11;96852.50;5092761;28;20059;-60
2022/10/25 01:01:14;;;;;;;4.97;3.67;;;;;;;10.36;75.70;96839.31;5092680;28;20044;-60
2022/10/25 01:03:44;;;;;;;7.88;3.63;;;;;;;10.28;76.37;96846.53;5092583;28;20105;-61
2022/10/25 01:06:17;;;;;;;11.88;4.68;;;;;;;10.32;76.25;96845.53;5092668;28;20044;-60
2022/10/25 01:08:47;;;;;;;7.47;3.70;;;;;;;10.27;75.95;96842.22;5092933;28;20051;-60
2022/10/25 01:11:14;;;;;;;5.95;3.78;;;;;;;10.23;76.46;96838.84;5092561;28;20055;-60
2022/10/25 01:13:43;;;;;;;7.95;3.90;;;;;;;10.27;75.74;96842.22;5096473;28;20073;-61
2022/10/25 01:16:20;;;;;;;7.45;4.35;;;;;;;10.23;75.54;96833.59;5096215;28;20044;-61
2022/10/25 01:18:55;;;;;;;8.65;4.65;;;;;;;10.21;76.10;96843.28;5095990;28;20044;-60
2022/10/25 01:21:40;;;;;;;10.30;5.57;;;;;;;10.13;76.46;96832.19;5095767;28;20139;-60
2022/10/25 01:24:28;;;;;;;13.00;4.55;;;;;;;10.08;77.05;96834.94;5096168;28;20044;-60
2022/10/25 01:27:16;;;;;;;8.20;5.00;;;;;;;10.05;77.03;96838.53;5093650;28;20106;-61
2022/10/25 01:30:06;;;;;;;7.35;4.28;;;;;;;10.01;77.13;96834.31;5095843;28;20048;-60
2022/10/25 01:32:53;;;;;;;5.07;4.07;;;;;;;10.04;77.25;96839.44;5095917;28;20497;-60
2022/10/25 01:35:27;;;;;;;8.50;4.78;;;;;;;10.04;77.14;96834.22;5095916;28;20040;-60
2022/10/25 01:38:18;;;;;;;10.65;5.10;;;;;;;10.07;77.56;96834.13;5095788;28;20044;-60
2022/10/25 01:40:57;;;;;;;8.35;4.47;;;;;;;10.06;77.68;96835.00;5095877;28;20062;-60
2022/10/25 01:43:35;;;;;;;6.13;4.20;;;;;;;10.04;77.53;96841.19;5095618;28;20044;-61
2022/10/25 01:46:13;;;;;;;8.05;4.30;;;;;;;10.06;77.38;96828.94;5095559;28;20063;-61
2022/10/25 01:48:48;;;;;;;8.18;4.97;;;;;;;10.06;77.43;96837.59;5095568;28;20047;-61
2022/10/25 01:51:17;;;;;;;7.57;4.10;;;;;;;10.07;76.96;96830.63;5095436;28;20052;-61
2022/10/25 01:53:46;;;;;;;8.82;3.72;;;;;;;10.03;76.97;96831.63;5095659;28;20101;-61
2022/10/25 01:56:18;;;;;;;9.27;5.47;;;;;;;9.91;78.12;96828.50;5095612;28;20044;-61
2022/10/25 01:58:54;;;;;;;7.40;4.90;;;;;;;9.98;77.29;96824.81;5095585;28;20044;-62
2022/10/25 02:01:33;;;;;;;8.27;4.60;;;;;;;9.96;77.30;96821.38;5095231;28;20127;-61
2022/10/25 02:04:08;;;;;;;6.00;4.65;;;;;;;9.98;76.91;96818.72;5095173;28;20044;-61
2022/10/25 02:06:48;;;;;;;5.38;4.13;;;;;;;9.98;76.41;96818.72;5095432;28;20087;-61
2022/10/25 02:09:21;;;;;;;10.23;4.63;;;;;;;9.92;77.29;96818.91;5095189;28;20397;-60
2022/10/25 02:11:52;;;;;;;9.23;4.88;;;;;;;9.95;77.67;96810.97;5095166;28;20051;-61
2022/10/25 02:14:26;;;;;;;6.95;4.25;;;;;;;9.91;78.04;96809.34;5095170;28;20383;-61
2022/10/25 02:16:57;;;;;;;8.02;4.70;;;;;;;9.86;77.91;96814.72;5094903;28;20127;-61
2022/10/25 02:19:31;;;;;;;7.90;5.38;;;;;;;9.84;78.34;96812.16;5095065;28;20048;-61
2022/10/25 02:22:01;;;;;;;11.98;4.68;;;;;;;9.85;78.50;96818.25;5094829;28;20048;-61
2022/10/25 02:24:32;;;;;;;9.45;4.88;;;;;;;9.89;77.09;96813.75;5093993;28;20044;-61
2022/10/25 02:27:01;;;;;;;7.70;4.53;;;;;;;9.88;77.03;96819.91;5094890;28;20482;-61
2022/10/25 02:29:30;;;;;;;9.25;4.80;;;;;;;9.81;76.99;96819.25;5094889;28;20048;-61
2022/10/25 02:31:58;;;;;;;10.52;4.80;;;;;;;9.77;77.43;96813.25;5094608;28;20059;-61
2022/10/25 02:34:27;;;;;;;7.00;4.80;;;;;;;9.77;77.36;96821.09;5094720;28;20050;-61
2022/10/25 02:36:54;;;;;;;8.07;5.07;;;;;;;9.73;77.41;96822.09;5094706;28;20052;-61
2022/10/25 02:39:23;;;;;;;8.18;4.95;;;;;;;9.73;77.67;96827.31;5094685;28;20052;-61
2022/10/25 02:41:50;;;;;;;9.00;4.85;;;;;;;9.72;77.70;96829.06;5094590;28;20139;-61
2022/10/25 02:44:18;;;;;;;8.68;4.75;;;;;;;9.73;77.29;96829.91;5094826;28;20139;-61
2022/10/25 02:46:45;;;;;;;7.65;4.43;;;;;;;9.71;77.63;96821.25;5094392;28;20055;-61
2022/10/25 02:49:13;;;;;;;10.27;5.32;;;;;;;9.63;78.15;96818.88;5094653;28;20070;-61
2022/10/25 02:51:41;;;;;;;9.05;5.50;;;;;;;9.54;78.70;96825.22;5094248;28;20109;-61
2022/10/25 02:54:08;;;;;;;8.60;4.88;;;;;;;9.51;78.80;96819.25;5094316;28;20097;-61
2022/10/25 02:56:36;;;;;;;10.85;5.32;;;;;;;9.54;79.05;96813.94;5094153;28;20052;-61
2022/10/25 02:59:03;;;;;;;10.65;5.28;;;;;;;9.55;79.66;96818.25;5094107;28;20044;-60
2022/10/25 03:01:30;;;;;;;7.65;5.03;;;;;;;9.56;79.05;96807.78;5094021;28;20056;-61
2022/10/25 03:04:00;;;;;;;9.57;4.75;;;;;;;9.57;79.26;96801.63;5094231;28;20044;-61
2022/10/25 03:06:27;;;;;;;7.88;4.63;;;;;;;9.60;79.03;96813.75;5093979;28;20051;-61
2022/10/25 03:08:55;;;;;;;8.70;4.68;;;;;;;9.59;78.42;96814.66;5094112;28;20043;-61
2022/10/25 03:11:23;;;;;;;8.27;4.55;;;;;;;9.60;78.79;96800.69;5093876;28;20055;-60
2022/10/25 03:13:51;;;;;;;7.28;4.88;;;;;;;9.63;78.43;96803.19;5094089;28;20092;-61
2022/10/25 03:16:18;;;;;;;12.60;5.53;;;;;;;9.67;77.89;96802.22;5094041;28;20052;-61
2022/10/25 03:18:45;;;;;;;6.38;5.10;;;;;;;9.68;77.77;96808.28;5094050;28;20044;-61
2022/10/25 03:21:15;;;;;;;11.40;5.03;;;;;;;9.67;77.62;96798.75;5093588;28;20052;-60
2022/10/25 03:23:42;;;;;;;7.75;4.82;;;;;;;9.65;77.90;96795.31;5093958;28;20569;-61
2022/10/25 03:26:12;;;;;;;7.75;4.55;;;;;;;9.66;77.37;96790.06;5093782;28;20044;-61
2022/10/25 03:28:43;;;;;;;11.30;4.32;;;;;;;9.66;76.97;96787.44;5093647;28;20113;-61
2022/10/25 03:31:11;;;;;;;;;;;;;;;9.64;77.46;96788.41;5094074;28;20080;-60
2022/10/25 03:33:38;;;;;;;10.60;4.55;;;;;;;9.57;77.27;96788.56;5093729;28;19919;-61
2022/10/25 03:36:06;;;;;;;10.52;4.57;;;;;;;9.54;77.61;96793.88;5093318;28;20417;-61
2022/10/25 03:38:33;;;;;;;11.88;5.15;;;;;;;9.46;78.33;96796.72;5093580;28;20048;-60
2022/10/25 03:41:00;;;;;;;10.18;5.60;;;;;;;9.48;78.68;96794.06;5093635;28;20056;-61
2022/10/25 03:43:29;;;;;;;7.93;4.47;;;;;;;9.45;78.69;96796.78;5093648;28;20055;-61
2022/10/25 03:45:57;;;;;;;6.63;5.00;;;;;;;9.46;78.58;96794.09;5093578;28;20123;-61
2022/10/25 03:48:24;;;;;;;11.02;5.45;;;;;;;9.45;78.55;96799.41;5093340;28;20044;-61
2022/10/25 03:50:53;;;;;;;9.07;5.18;;;;;;;9.46;78.14;96795.88;5093286;28;20083;-60
2022/10/25 03:53:21;;;;;;;6.57;4.45;;;;;;;9.48;78.00;96800.16;5093417;28;20048;-61
2022/10/25 03:55:48;;;;;;;8.25;5.20;;;;;;;9.44;78.54;96790.72;5093271;28;20127;-60
2022/10/25 03:58:16;;;;;;;8.35;5.20;;;;;;;9.43;78.79;96786.41;5093158;28;20062;-61
2022/10/25 04:00:44;;;;;;;13.38;5.43;;;;;;;9.39;79.13;96776.91;5093305;28;20048;-61
2022/10/25 04:03:12;;;;;;;13.15;5.72;;;;;;;9.41;79.48;96779.47;5093357;28;20160;-61
2022/10/25 04:05:39;;;;;;;8.65;4.80;;;;;;;9.41;79.37;96775.13;5093142;28;20045;-60
2022/10/25 04:08:07;;;;;;;10.05;5.70;;;;;;;9.41;79.04;96774.25;5093191;28;20044;-61
2022/10/25 04:10:34;;;;;;;7.80;5.15;;;;;;;9.41;79.29;96774.25;5092999;28;20052;-61
2022/10/25 04:13:02;;;;;;;7.97;5.22;;;;;;;9.42;79.15;96776.00;5093088;28;20134;-61
2022/10/25 04:15:30;;;;;;;12.13;5.15;;;;;;;9.41;79.13;96779.47;5093131;28;20048;-60
2022/10/25 04:17:58;;;;;;;6.38;4.95;;;;;;;9.34;79.72;96784.88;5093130;28;20135;-60
2022/10/25 04:20:26;;;;;;;11.32;5.50;;;;;;;9.34;80.40;96792.72;5093020;28;20044;-61
2022/10/25 04:22:55;;;;;;;9.45;5.07;;;;;;;9.39;80.33;96776.91;5093084;28;20127;-60
2022/10/25 04:25:22;;;;;;;8.02;5.20;;;;;;;9.37;80.10;96768.28;5093106;28;20132;-61
2022/10/25 04:27:50;;;;;;;7.75;5.13;;;;;;;9.35;80.26;96780.53;5093287;28;20052;-61
2022/10/25 04:30:17;;;;;;;9.00;5.35;;;;;;;9.18;81.65;96775.81;5093058;28;20075;-60
2022/10/25 04:32:44;;;;;;;11.23;5.78;;;;;;;9.19;82.30;96774.91;5092991;28;20048;-59
2022/10/25 04:35:13;;;;;;;6.05;4.60;;;;;;;9.23;81.73;96777.38;5092890;28;20390;-62
2022/10/25 04:37:40;;;;;;;8.65;5.40;;;;;;;9.26;81.57;96775.56;5092892;28;20485;-62
2022/10/25 04:40:08;;;;;;;7.10;4.88;;;;;;;9.28;81.40;96773.78;5092925;28;20082;-62
2022/10/25 04:42:36;;;;;;;7.25;5.00;;;;;;;9.29;81.68;96778.97;5092866;28;20101;-62
2022/10/25 04:45:04;;;;;;;7.18;4.30;;;;;;;9.34;82.53;96781.44;5092889;28;20474;-62
2022/10/25 04:47:32;;;;;;;7.80;5.03;;;;;;;9.34;82.15;96776.22;5094759;28;20048;-62
2022/10/25 04:49:59;;;;;;;9.15;4.97;;;;;;;9.40;81.75;96776.03;5096742;28;20048;-62
2022/10/25 04:52:28;;;;;;;8.27;4.75;;;;;;;9.44;81.55;96772.44;5096922;28;20489;-62
2022/10/25 04:54:56;;;;;;;10.20;5.55;;;;;;;9.48;81.11;96775.78;5096573;28;20405;-62
2022/10/25 04:57:24;;;;;;;8.32;4.88;;;;;;;9.56;79.56;96780.78;5096760;28;20047;-62
2022/10/25 04:59:52;;;;;;;7.82;4.82;;;;;;;9.58;78.86;96781.59;5096560;28;20103;-61
2022/10/25 05:02:19;;;;;;;6.38;4.40;;;;;;;9.64;78.38;96781.44;5096389;28;20044;-61
2022/10/25 05:04:46;;;;;;;8.95;4.75;;;;;;;9.67;78.61;96785.69;5096459;28;20051;-62
2022/10/25 05:07:13;;;;;;;8.45;5.35;;;;;;;9.69;79.38;96781.28;5096371;28;20067;-61
2022/10/25 05:09:42;;;;;;;6.63;4.47;;;;;;;9.70;79.70;96781.22;5096462;28;20138;-61
2022/10/25 05:12:09;;;;;;;11.90;5.53;;;;;;;9.74;80.26;96787.22;5096074;28;20401;-61
2022/10/25 05:14:36;;;;;;;5.07;3.97;;;;;;;9.83;80.18;96786.06;5096208;28;20048;-61
2022/10/25 05:17:04;;;;;;;12.27;5.18;;;;;;;9.92;79.55;96792.75;5096140;28;20047;-61
2022/10/25 05:19:31;;;;;;;5.07;4.20;;;;;;;9.99;78.86;96794.28;5096029;28;20048;-61
2022/10/25 05:21:59;;;;;;;7.63;4.90;;;;;;;10.09;78.78;96795.69;5096058;28;20056;-61
2022/10/25 05:24:26;;;;;;;10.13;4.85;;;;;;;10.23;77.94;96795.25;5096226;28;20098;-61
2022/10/25 05:26:55;;;;;;;10.70;4.95;;;;;;;10.36;77.70;96793.09;5096329;28;20395;-61
2022/10/25 05:29:22;;;;;;;6.85;4.10;;;;;;;10.45;77.29;96798.94;5096170;28;20490;-61
2022/10/25 05:31:49;;;;;;;11.48;4.70;;;;;;;10.51;76.94;96798.78;5095850;28;20405;-61
2022/10/25 05:34:16;;;;;;;6.30;4.47;;;;;;;10.59;76.76;96799.34;5095961;28;20500;-62
2022/10/25 05:36:44;;;;;;;8.52;4.45;;;;;;;10.69;76.13;96805.09;5095730;28;20048;-61
2022/10/25 05:39:11;;;;;;;6.53;4.80;;;;;;;10.75;76.56;96798.84;5095766;28;20079;-62
2022/10/25 05:41:38;;;;;;;8.02;4.70;;;;;;;10.93;76.46;96801.72;5095854;28;20119;-61
2022/10/25 05:44:07;;;;;;;8.57;4.18;;;;;;;11.23;75.88;96806.75;5095760;28;20052;-61
2022/10/25 05:46:38;;;;;;;5.13;3.85;;;;;;;11.84;73.59;96805.38;5095624;28;20052;-62
2022/10/25 05:49:06;;;;;;;8.15;3.67;;;;;;;12.79;70.25;96813.81;5095596;28;20494;-61
2022/10/25 05:51:34;;;;;;;6.63;3.63;;;;;;;13.94;66.94;96807.06;5095398;28;20055;-61
2022/10/25 05:54:03;;;;;;;7.00;4.57;;;;;;;15.05;62.97;96810.41;5095452;28;20058;-61
2022/10/25 05:56:32;;;;;;;6.30;3.42;;;;;;;16.14;59.94;96817.81;5095567;28;20051;-61
2022/10/25 05:59:06;;;;;;;5.15;3.42;;;;;;;17.36;56.62;96817.88;5095163;28;20072;-62
2022/10/25 06:01:35;;;;;;;9.48;3.70;;;;;;;18.46;53.43;96817.25;5095424;28;20143;-61
2022/10/25 06:04:03;;;;;;;9.15;3.17;;;;;;;19.38;50.51;96814.66;5095402;28;20056;-62
2022/10/25 06:06:30;;;;;;;7.28;3.20;;;;;;;20.25;48.01;96825.41;5095206;28;20079;-62
2022/10/25 06:08:58;;;;;;;7.18;2.83;;;;;;;21.13;46.51;96820.72;5095155;28;20076;-60
2022/10/25 06:11:27;;;;;;;4.55;2.33;;;;;;;22.06;44.22;96825.97;5095116;28;20048;-61
2022/10/25 06:13:54;;;;;;;4.07;2.70;;;;;;;22.92;42.22;96835.03;5095137;28;20044;-61
2022/10/25 06:16:22;;;;;;;6.22;2.85;;;;;;;23.62;40.47;96835.50;5095029;28;20086;-61
2022/10/25 06:18:51;;;;;;;4.75;2.58;;;;;;;24.27;39.32;96828.97;5094971;28;20048;-58
2022/10/25 06:21:20;;;;;;;3.50;2.60;;;;;;;24.92;38.28;96833.81;5094757;28;20101;-61
2022/10/25 06:23:48;;;;;;;5.95;3.13;;;;;;;25.59;37.29;96837.50;5094833;28;20402;-61
2022/10/25 06:26:16;;;;;;;6.70;3.03;;;;;;;26.10;36.40;96823.75;5095012;28;20401;-61
2022/10/25 06:28:44;;;;;;;4.28;2.67;;;;;;;26.25;35.66;96827.59;5094968;28;20048;-61
2022/10/25 06:31:13;;;;;;;3.33;2.60;;;;;;;26.36;35.80;96826.59;5094777;28;20056;-61
2022/10/25 06:33:41;;;;;;;4.32;2.70;;;;;;;26.96;34.69;96831.47;5094739;28;20048;-61
2022/10/25 06:36:13;;;;;;;4.40;2.95;;;;;;;27.61;33.34;96821.38;5094603;28;20075;-61
2022/10/25 06:38:41;;;;;;;5.75;2.85;;;;;;;28.06;32.54;96821.25;5094533;28;20047;-61
2022/10/25 06:41:12;;;;;;;4.82;2.90;;;;;;;28.73;31.35;96819.59;5094417;28;20143;-61
2022/10/25 06:43:40;;;;;;;5.65;3.38;;;;;;;29.39;30.17;96827.66;5094524;28;20418;-61
2022/10/25 06:46:08;;;;;;;5.22;3.40;;;;;;;29.88;29.79;96814.22;5094458;28;20063;-61
2022/10/25 06:48:35;;;;;;;3.85;2.83;;;;;;;30.35;29.75;96822.47;5094401;28;20077;-59
2022/10/25 06:51:05;;;;;;;3.72;3.03;;;;;;;30.95;28.82;96822.75;5094524;28;20059;-60
2022/10/25 06:53:34;;;;;;;4.47;2.83;;;;;;;31.28;28.44;96822.44;5094541;28;20064;-60
2022/10/25 06:56:01;;;;;;;4.70;3.10;;;;;;;31.26;27.74;96816.41;5094209;28;20090;-61
2022/10/25 06:58:31;;;;;;;6.95;4.22;;;;;;;31.51;27.41;96808.06;5094232;28;20044;-61
2022/10/25 07:01:01;;;;;;;6.63;3.97;;;;;;;31.64;27.16;96806.59;5094501;28;20056;-61
2022/10/25 07:03:33;;;;;;;5.88;3.67;;;;;;;31.87;27.17;96811.03;5094223;28;20287;-61
2022/10/25 07:06:01;;;;;;;5.22;2.90;;;;;;;32.21;26.49;96815.06;5094240;28;20047;-61
2022/10/25 07:08:28;;;;;;;4.22;3.05;;;;;;;32.45;25.62;96810.31;5094059;28;20044;-61
2022/10/25 07:10:57;;;;;;;4.05;2.78;;;;;;;32.46;24.84;96806.56;5093364;28;20130;-61
2022/10/25 07:13:25;;;;;;;4.55;3.05;;;;;;;32.00;25.95;96816.66;5093958;28;20082;-61
2022/10/25 07:15:52;;;;;;;4.90;2.78;;;;;;;31.90;25.96;96807.97;5094087;28;20040;-61
2022/10/25 07:18:19;;;;;;;4.95;3.17;;;;;;;31.56;27.25;96814.78;5094031;28;20119;-61
2022/10/25 07:20:47;;;;;;;4.43;2.78;;;;;;;30.91;27.51;96809.81;5093577;28;20502;-61
2022/10/25 07:23:15;;;;;;;4.57;2.70;;;;;;;30.08;28.42;96811.13;5093807;28;20047;-61
2022/10/25 07:25:42;;;;;;;3.58;2.45;;;;;;;29.10;30.03;96814.72;5094058;28;20102;-61
2022/10/25 07:28:12;;;;;;;5.00;2.80;;;;;;;28.42;30.84;96802.25;5094028;28;20113;-61
2022/10/25 07:30:45;;;;;;;4.90;2.33;;;;;;;27.97;31.32;96813.19;5093712;28;20044;-61
2022/10/25 07:33:13;;;;;;;5.25;2.38;;;;;;;27.90;31.08;96811.31;5093586;28;20056;-61
2022/10/25 07:35:40;;;;;;;3.83;2.42;;;;;;;28.08;31.63;96811.19;5093719;28;20414;-60
2022/10/25 07:38:07;;;;;;;8.07;2.78;;;;;;;28.45;31.23;96804.59;5093473;28;20040;-61
2022/10/25 07:40:34;;;;;;;4.72;2.65;;;;;;;28.65;30.84;96809.66;5093582;28;20135;-60
2022/10/25 07:43:01;;;;;;;4.65;3.03;;;;;;;28.80;30.13;96799.06;5093530;28;20051;-60
2022/10/25 07:45:30;;;;;;;7.03;4.38;;;;;;;28.86;29.78;96805.63;5093547;28;20465;-61
2022/10/25 07:47:57;;;;;;;6.88;4.55;;;;;;;28.79;30.14;96800.09;5093350;28;20050;-61
2022/10/25 07:50:24;;;;;;;8.88;5.10;;;;;;;28.60;30.25;96795.88;5093469;28;20052;-61
2022/10/25 07:52:53;;;;;;;7.13;4.45;;;;;;;28.24;30.74;96796.97;5093411;28;20455;-61
2022/10/25 07:55:21;;;;;;;7.00;4.40;;;;;;;27.98;31.82;96795.19;5093417;28;20052;-61
2022/10/25 07:57:48;;;;;;;9.60;4.50;;;;;;;27.58;32.04;96794.84;5093349;28;20054;-61
2022/10/25 08:00:16;;;;;;;6.75;4.80;;;;;;;27.47;32.47;96791.44;5093331;28;20056;-61
2022/10/25 08:02:45;;;;;;;6.40;4.07;;;;;;;27.33;32.68;96782.09;5093282;28;20044;-61
2022/10/25 08:05:12;;;;;;;9.73;4.80;;;;;;;27.24;33.09;96788.44;5093191;28;20044;-61
2022/10/25 08:07:39;;;;;;;7.30;4.70;;;;;;;27.18;33.43;96789.91;5093251;28;20084;-61
2022/10/25 08:10:07;;;;;;;5.38;4.30;;;;;;;27.06;33.46;96783.13;5093132;28;20097;-61
2022/10/25 08:12:34;;;;;;;8.73;3.72;;;;;;;26.90;33.80;96770.41;5093141;28;20051;-60
2022/10/25 08:15:01;;;;;;;8.05;3.85;;;;;;;26.54;33.23;96766.75;5093409;28;20171;-61
2022/10/25 08:17:28;;;;;;;9.43;4.10;;;;;;;26.39;33.65;96768.31;5092944;28;20044;-61
2022/10/25 08:19:57;;;;;;;4.97;3.22;;;;;;;26.29;33.68;96773.69;5093123;28;20052;-60
2022/10/25 08:22:24;;;;;;;5.75;3.38;;;;;;;26.28;34.66;96769.34;5094882;28;20059;-61
2022/10/25 08:24:51;;;;;;;8.45;4.38;;;;;;;26.37;33.76;96761.22;5097279;28;20503;-60
2022/10/25 08:27:18;;;;;;;6.55;3.85;;;;;;;26.35;34.51;96765.06;5097205;28;20486;-61
2022/10/25 08:29:45;;;;;;;5.30;3.80;;;;;;;26.30;34.36;96762.84;5097332;28;20079;-60
2022/10/25 08:32:12;;;;;;;7.10;3.83;;;;;;;26.32;34.38;96757.34;5096953;28;20079;-60
2022/10/25 08:34:39;;;;;;;10.15;5.07;;;;;;;26.28;34.54;96762.16;5096978;28;20075;-61
2022/10/25 08:37:11;;;;;;;8.98;5.07;;;;;;;26.37;34.68;96755.88;5097222;28;20466;-61
2022/10/25 08:39:38;;;;;;;7.35;4.78;;;;;;;26.46;34.43;96761.31;5097011;28;20474;-61
2022/10/25 08:42:06;;;;;;;7.55;4.40;;;;;;;26.48;33.78;96748.59;5096922;28;20048;-60
2022/10/25 08:44:43;;;;;;;7.43;4.28;;;;;;;26.48;33.83;96753.94;5096782;28;20052;-61
2022/10/25 08:47:17;;;;;;;5.18;3.90;;;;;;;26.42;33.81;96746.53;5097085;28;20131;-61
2022/10/25 08:49:52;;;;;;;7.03;3.58;;;;;;;26.34;33.88;96748.13;5096716;28;20048;-60
2022/10/25 08:52:27;;;;;;;5.40;3.45;;;;;;;26.27;33.28;96746.22;5096703;28;20113;-61
2022/10/25 08:54:57;;;;;;;9.93;3.90;;;;;;;26.15;34.69;96746.41;5096725;28;20437;-60
2022/10/25 08:57:26;;;;;;;8.93;4.05;;;;;;;26.05;33.38;96737.59;5096583;28;20048;-61
2022/10/25 08:59:57;;;;;;;7.13;3.55;;;;;;;25.96;34.40;96737.53;5096486;28;20072;-61
2022/10/25 09:02:34;;;;;;;7.82;3.55;;;;;;;25.98;34.92;96732.03;5096493;28;20066;-61
2022/10/25 09:05:01;;;;;;;5.85;3.65;;;;;;;26.05;34.92;96732.25;5096346;28;20052;-61
2022/10/25 09:07:54;;;;;;;9.32;4.13;;;;;;;26.19;34.42;96733.56;5096642;28;20048;-60
2022/10/25 09:10:32;;;;;;;6.07;3.75;;;;;;;26.29;34.54;96736.16;5096434;28;20146;-60
2022/10/25 09:13:08;;;;;;;6.50;4.25;;;;;;;26.10;34.46;96732.66;5096429;28;20457;-61
2022/10/25 09:15:52;;;;;;;8.68;4.57;;;;;;;26.06;34.65;96728.56;5096258;28;20048;-60
2022/10/25 09:18:22;;;;;;;10.50;3.90;;;;;;;26.17;35.17;96719.47;5096239;28;20079;-60
2022/10/25 09:20:50;;;;;;;;;;;;;;;26.10;35.15;96725.44;5096406;28;20108;-61
2022/10/25 09:23:27;;;;;;;8.70;4.00;;;;;;;26.08;34.00;96722.06;5096190;28;19959;-60
2022/10/25 09:26:01;;;;;;;6.00;3.78;;;;;;;25.94;35.09;96719.91;5096048;28;20044;-60
2022/10/25 09:28:42;;;;;;;5.47;3.47;;;;;;;25.94;34.97;96719.91;5096129;28;20055;-60
2022/10/25 09:31:13;;;;;;;6.45;4.30;;;;;;;25.92;35.23;96719.22;5096101;28;20075;-60
2022/10/25 09:33:45;;;;;;;6.55;3.85;;;;;;;25.92;34.65;96727.25;5095184;28;20097;-60
2022/10/25 09:36:15;;;;;;;6.53;3.78;;;;;;;25.91;34.68;96721.06;5096108;28;20490;-61
2022/10/25 09:38:49;;;;;;;6.05;3.60;;;;;;;26.02;35.15;96709.28;5095961;28;20099;-61
2022/10/25 09:41:19;;;;;;;6.00;3.97;;;;;;;26.04;34.01;96714.50;5095660;28;20052;-60
2022/10/25 09:43:53;;;;;;;6.83;4.30;;;;;;;25.96;35.15;96696.50;5095774;28;20098;-60
2022/10/25 09:46:27;;;;;;;6.97;4.55;;;;;;;26.04;34.77;96704.63;5095781;28;20658;-59
2022/10/25 09:48:59;;;;;;;6.70;4.00;;;;;;;25.98;34.68;96695.34;5095576;28;20052;-61
2022/10/25 09:51:32;;;;;;;9.80;3.53;;;;;;;25.98;34.84;96692.66;5095501;28;20134;-61
2022/10/25 09:54:09;;;;;;;6.53;3.78;;;;;;;25.97;34.79;96699.03;5095968;28;20626;-60
2022/10/25 09:56:37;;;;;;;10.00;4.43;;;;;;;25.95;34.66;96692.97;5095545;28;20044;-60
2022/10/25 09:59:04;;;;;;;6.38;3.92;;;;;;;25.86;35.27;96680.50;5095546;28;20051;-60
2022/10/25 10:01:39;;;;;;;9.32;3.90;;;;;;;25.88;35.32;96677.66;5095507;28;20047;-61
2022/10/25 10:04:25;;;;;;;6.13;4.18;;;;;;;25.78;35.48;96681.25;5095302;28;20410;-61
2022/10/25 10:06:57;;;;;;;8.73;4.25;;;;;;;25.80;34.99;96667.72;5095278;28;20052;-60
2022/10/25 10:09:29;;;;;;;8.30;4.28;;;;;;;25.71;35.42;96675.63;5095222;28;20052;-60
2022/10/25 10:11:59;;;;;;;8.95;4.95;;;;;;;25.59;35.26;96666.13;5095340;28;20048;-60
2022/10/25 10:14:33;;;;;;;9.37;4.07;;;;;;;25.49;35.73;96666.16;5095214;28;20048;-60
2022/10/25 10:17:02;;;;;;;7.32;4.38;;;;;;;25.41;35.85;96658.03;5095102;28;20280;-60
2022/10/25 10:19:30;;;;;;;13.40;4.63;;;;;;;25.37;36.17;96657.47;5094955;28;20085;-61
2022/10/25 10:22:00;;;;;;;6.45;4.05;;;;;;;25.16;35.62;96658.56;5094848;28;20056;-60
2022/10/25 10:24:31;;;;;;;10.82;4.65;;;;;;;25.04;36.72;96657.91;5094925;28;20166;-61
2022/10/25 10:26:59;;;;;;;;;;;;;;;24.94;36.82;96654.44;5095275;28;20058;-60
2022/10/25 10:29:28;;;;;;;8.18;3.78;;;;;;;24.85;37.28;96654.31;5095151;28;19920;-60
2022/10/25 10:31:58;;;;;;;7.30;4.97;;;;;;;24.84;36.84;96649.09;5095169;28;20043;-60
2022/10/25 10:34:27;;;;;;;7.28;4.30;;;;;;;24.83;37.15;96658.94;5094746;28;20055;-60
2022/10/25 10:37:16;;;;;;;6.97;4.63;;;;;;;24.87;36.97;96656.88;5094778;28;20052;-60
2022/10/25 10:39:53;;;;;;;10.73;4.80;;;;;;;24.79;37.69;96659.38;5094618;28;20101;-60
2022/10/25 10:42:22;;;;;;;8.55;5.22;;;;;;;24.78;37.32;96647.88;5094834;28;20076;-60
2022/10/25 10:45:14;;;;;;;8.25;5.15;;;;;;;24.74;36.47;96651.78;5093623;28;20097;-60
2022/10/25 10:47:44;;;;;;;10.57;4.70;;;;;;;24.66;37.62;96652.53;5085698;28;20054;-60
2022/10/25 10:50:21;;;;;;;6.65;4.32;;;;;;;24.62;37.46;96651.13;5094479;28;20044;-60
2022/10/25 10:52:56;;;;;;;8.68;5.05;;;;;;;24.66;37.63;96657.88;5094644;28;20050;-60
2022/10/25 10:55:29;;;;;;;8.95;4.53;;;;;;;24.61;37.54;96652.97;5094390;28;20105;-60
2022/10/25 10:58:01;;;;;;;9.75;5.82;;;;;;;24.56;37.58;96652.53;5094395;28;20044;-60
2022/10/25 11:00:30;;;;;;;12.55;4.90;;;;;;;24.52;37.47;96652.97;5094446;28;20406;-60
2022/10/25 11:02:58;;;;;;;8.63;4.75;;;;;;;24.51;37.90;96643.28;5094345;28;20143;-59
2022/10/25 11:05:26;;;;;;;9.05;5.65;;;;;;;24.50;38.07;96653.13;5094106;28;20048;-60
2022/10/25 11:07:59;;;;;;;9.10;5.22;;;;;;;24.53;37.07;96647.50;5094105;28;20048;-60
2022/10/25 11:10:30;;;;;;;8.50;4.70;;;;;;;24.27;38.10;96649.94;5093884;28;20079;-60
2022/10/25 11:13:11;;;;;;;7.80;5.13;;;;;;;24.31;38.30;96651.31;5094004;28;20044;-60
2022/10/25 11:16:15;;;;;;;6.40;4.32;;;;;;;24.44;37.14;96641.16;5094338;28;20498;-61
2022/10/25 11:19:15;;;;;;;8.25;4.95;;;;;;;24.48;37.80;96641.75;5093950;28;20048;-61
2022/10/25 11:22:03;;;;;;;8.10;5.60;;;;;;;24.57;37.47;96634.69;5091630;28;20047;-60
2022/10/25 11:24:36;;;;;;;12.45;5.35;;;;;;;24.54;37.49;96637.66;5080183;28;20409;-61
2022/10/25 11:27:16;;;;;;;7.35;4.78;;;;;;;24.53;37.18;96641.31;5093928;28;20044;-61
2022/10/25 11:29:56;;;;;;;10.80;4.82;;;;;;;24.54;36.93;96632.31;5093859;28;20044;-60
2022/10/25 11:32:48;;;;;;;12.00;5.30;;;;;;;24.51;37.52;96640.59;5093671;28;20040;-60
2022/10/25 11:35:33;;;;;;;8.45;5.18;;;;;;;24.56;37.47;96625.81;5093528;28;20043;-60
2022/10/25 11:38:06;;;;;;;8.82;4.88;;;;;;;24.64;37.93;96624.25;5093543;28;20043;-60
2022/10/25 11:40:39;;;;;;;8.20;5.10;;;;;;;24.71;37.22;96620.03;5093392;28;20094;-60
2022/10/25 11:43:27;;;;;;;9.95;5.30;;;;;;;24.73;36.91;96626.06;5093762;28;20052;-60
2022/10/25 11:45:59;;;;;;;9.05;5.20;;;;;;;24.77;36.86;96610.56;5093501;28;20136;-61
2022/10/25 11:48:38;;;;;;;14.98;5.53;;;;;;;24.86;36.56;96615.00;5093402;28;20048;-61
2022/10/25 11:51:13;;;;;;;9.07;5.20;;;;;;;24.88;36.46;96618.44;5093552;28;20048;-61